Time;durP1;ratioP1;P1;durP2;ratioP2;P2;SDS_P1;SDS_P2;PMS_P1;PMS_P2;Temp;Humidity;BMP_temperature;BMP_pressure;BME280_temperature;BME280_humidity;BME280_pressure;Samples;Min_cycle;Max_cycle;Signal;HPM_P1;HPM_P2
2023/06/21 00:02:03;;;;;;;25.65;21.38;;;;;;;;;;5068558;27;98736;-76
2023/06/21 00:04:30;;;;;;;25.92;21.55;;;;;;;;;;5069103;27;99861;-76
2023/06/21 00:06:57;;;;;;;30.77;22.23;;;;;;;;;;5069408;27;98843;-76
2023/06/21 00:09:23;;;;;;;29.98;23.55;;;;;;;;;;5067914;27;98787;-77
2023/06/21 00:11:50;;;;;;;30.70;23.73;;;;;;;;;;5069879;27;99983;-75
2023/06/21 00:14:16;;;;;;;27.50;22.80;;;;;;;;;;5072511;27;98397;-76
2023/06/21 00:16:44;;;;;;;26.25;22.98;;;;;;;;;;5068750;27;100057;-74
2023/06/21 00:19:10;;;;;;;27.33;22.88;;;;;;;;;;5069222;27;98706;-75
2023/06/21 00:21:38;;;;;;;26.30;22.23;;;;;;;;;;5068851;27;98408;-76
2023/06/21 00:24:06;;;;;;;26.45;21.92;;;;;;;;;;5067489;27;99738;-76
2023/06/21 00:26:33;;;;;;;27.17;21.10;;;;;;;;;;5069370;27;98817;-75
2023/06/21 00:29:00;;;;;;;24.27;21.20;;;;;;;;;;5067534;27;98507;-75
2023/06/21 00:31:27;;;;;;;24.50;21.83;;;;;;;;;;5050060;27;102094;-75
2023/06/21 00:33:54;;;;;;;24.05;21.10;;;;;;;;;;5050959;27;98736;-76
2023/06/21 00:36:20;;;;;;;27.48;22.25;;;;;;;;;;5052801;27;100449;-75
2023/06/21 00:38:47;;;;;;;26.75;21.23;;;;;;;;;;5050488;27;98277;-76
2023/06/21 00:41:16;;;;;;;29.58;23.02;;;;;;;;;;5050449;27;99654;-75
2023/06/21 00:43:42;;;;;;;25.85;22.90;;;;;;;;;;5068407;27;99105;-76
2023/06/21 00:46:09;;;;;;;33.35;22.83;;;;;;;;;;5050525;27;98719;-76
2023/06/21 00:48:35;;;;;;;25.10;22.02;;;;;;;;;;5050714;27;101205;-76
2023/06/21 00:51:02;;;;;;;24.30;21.70;;;;;;;;;;5068036;27;98996;-76
2023/06/21 00:53:29;;;;;;;25.02;22.45;;;;;;;;;;5068145;27;98547;-75
2023/06/21 00:55:56;;;;;;;30.55;22.10;;;;;;;;;;5071976;27;98673;-76
2023/06/21 00:58:23;;;;;;;24.13;21.60;;;;;;;;;;5068279;27;98456;-75
2023/06/21 01:00:50;;;;;;;24.55;21.73;;;;;;;;;;5050729;27;98975;-76
2023/06/21 01:03:17;;;;;;;26.67;22.55;;;;;;;;;;5050219;27;99930;-74
2023/06/21 01:06:09;;;;;;;24.05;21.60;;;;;;;;;;5067982;27;98265;-76
2023/06/21 01:09:01;;;;;;;27.35;21.05;;;;;;;;;;5067702;27;98649;-75
2023/06/21 01:11:29;;;;;;;23.77;21.10;;;;;;;;;;5068052;27;99890;-75
2023/06/21 01:14:05;;;;;;;25.15;21.92;;;;;;;;;;5068764;27;99092;-76
2023/06/21 01:16:38;;;;;;;24.02;20.83;;;;;;;;;;5067472;27;98446;-76
2023/06/21 01:19:05;;;;;;;30.38;22.30;;;;;;;;;;5051035;27;101004;-76
2023/06/21 01:21:32;;;;;;;23.88;21.08;;;;;;;;;;5071466;27;98519;-76
2023/06/21 01:24:06;;;;;;;26.60;20.15;;;;;;;;;;5088114;27;98736;-76
2023/06/21 01:26:32;;;;;;;23.17;20.67;;;;;;;;;;5088651;27;98185;-76
2023/06/21 01:29:03;;;;;;;23.60;19.63;;;;;;;;;;5087947;27;98805;-76
2023/06/21 01:31:30;;;;;;;25.98;19.65;;;;;;;;;;5088836;27;99294;-76
2023/06/21 01:33:59;;;;;;;24.40;19.42;;;;;;;;;;5069201;27;98374;-77
2023/06/21 01:36:26;;;;;;;23.42;19.88;;;;;;;;;;5089101;27;99080;-78
2023/06/21 01:38:56;;;;;;;20.50;18.35;;;;;;;;;;5088798;27;98897;-76
2023/06/21 01:41:22;;;;;;;26.08;19.98;;;;;;;;;;5072585;27;98064;-76
2023/06/21 01:43:49;;;;;;;27.08;20.13;;;;;;;;;;5069257;27;101523;-76
2023/06/21 01:46:19;;;;;;;29.55;19.77;;;;;;;;;;5069985;27;98284;-76
2023/06/21 01:48:47;;;;;;;32.70;21.33;;;;;;;;;;5069366;27;101068;-75
2023/06/21 01:51:13;;;;;;;28.90;21.15;;;;;;;;;;5068204;27;101738;-76
2023/06/21 01:53:40;;;;;;;28.00;21.83;;;;;;;;;;5049201;27;99209;-76
2023/06/21 01:56:08;;;;;;;27.92;21.83;;;;;;;;;;5067859;27;99169;-75
2023/06/21 01:58:35;;;;;;;28.80;22.75;;;;;;;;;;5067154;27;99447;-77
2023/06/21 02:01:02;;;;;;;35.50;24.27;;;;;;;;;;5048655;27;98245;-77
2023/06/21 02:03:29;;;;;;;35.30;26.25;;;;;;;;;;5052646;27;100185;-76
2023/06/21 02:05:59;;;;;;;35.28;25.90;;;;;;;;;;5048451;27;98589;-76
2023/06/21 02:08:28;;;;;;;35.42;25.98;;;;;;;;;;5066297;27;98307;-77
2023/06/21 02:10:55;;;;;;;32.95;26.15;;;;;;;;;;5049177;27;102010;-75
2023/06/21 02:13:21;;;;;;;32.03;26.00;;;;;;;;;;5068329;27;98643;-76
2023/06/21 02:15:48;;;;;;;35.90;27.02;;;;;;;;;;5048792;27;101385;-76
2023/06/21 02:18:14;;;;;;;36.33;27.75;;;;;;;;;;5048801;27;99972;-77
2023/06/21 02:20:41;;;;;;;45.03;27.88;;;;;;;;;;5067935;27;98216;-77
2023/06/21 02:23:07;;;;;;;37.53;27.63;;;;;;;;;;5048272;27;101122;-77
2023/06/21 02:25:35;;;;;;;38.95;27.15;;;;;;;;;;5052814;27;101369;-75
2023/06/21 02:28:02;;;;;;;37.30;27.77;;;;;;;;;;5067774;27;98442;-76
2023/06/21 02:30:29;;;;;;;33.45;27.00;;;;;;;;;;5066920;27;98747;-76
2023/06/21 02:32:56;;;;;;;35.25;26.48;;;;;;;;;;5066901;27;98399;-76
2023/06/21 02:35:22;;;;;;;36.53;27.33;;;;;;;;;;5069860;27;98393;-77
2023/06/21 02:37:49;;;;;;;39.25;26.63;;;;;;;;;;5051946;27;100014;-77
2023/06/21 02:40:16;;;;;;;39.88;28.05;;;;;;;;;;5071146;27;98356;-76
2023/06/21 02:42:43;;;;;;;37.92;28.52;;;;;;;;;;5052661;27;100925;-78
2023/06/21 02:45:10;;;;;;;40.22;29.35;;;;;;;;;;5069957;27;99888;-77
2023/06/21 02:47:37;;;;;;;36.60;27.45;;;;;;;;;;5074544;27;98087;-76
2023/06/21 02:50:04;;;;;;;38.33;28.88;;;;;;;;;;5051227;27;98903;-76
2023/06/21 02:52:30;;;;;;;43.70;29.13;;;;;;;;;;5070933;27;98871;-75
2023/06/21 02:54:57;;;;;;;40.15;29.85;;;;;;;;;;5070800;27;98224;-76
2023/06/21 02:57:24;;;;;;;45.45;29.13;;;;;;;;;;5050460;27;101972;-76
2023/06/21 02:59:50;;;;;;;38.38;30.23;;;;;;;;;;5071106;27;98254;-76
2023/06/21 03:02:17;;;;;;;45.85;29.90;;;;;;;;;;5070701;27;98458;-76
2023/06/21 03:04:44;;;;;;;45.08;30.60;;;;;;;;;;5069633;27;98666;-77
2023/06/21 03:07:11;;;;;;;38.58;29.63;;;;;;;;;;5073657;27;98323;-75
2023/06/21 03:09:38;;;;;;;44.60;32.22;;;;;;;;;;5070603;27;98786;-77
2023/06/21 03:12:08;;;;;;;42.22;30.75;;;;;;;;;;5069820;27;98211;-75
2023/06/21 03:14:37;;;;;;;43.72;30.95;;;;;;;;;;5051948;27;100191;-76
2023/06/21 03:17:06;;;;;;;48.78;32.63;;;;;;;;;;5051574;27;101303;-76
2023/06/21 03:19:32;;;;;;;46.70;32.45;;;;;;;;;;5051415;27;98531;-76
2023/06/21 03:22:00;;;;;;;51.70;33.65;;;;;;;;;;5051402;27;101525;-76
2023/06/21 03:24:28;;;;;;;46.30;32.50;;;;;;;;;;5051180;27;101141;-77
2023/06/21 03:26:56;;;;;;;50.22;34.13;;;;;;;;;;5050663;27;98535;-76
2023/06/21 03:29:23;;;;;;;62.75;37.33;;;;;;;;;;5055177;27;99481;-77
2023/06/21 03:31:49;;;;;;;47.58;32.03;;;;;;;;;;5070006;27;98258;-75
2023/06/21 03:34:16;;;;;;;52.60;34.20;;;;;;;;;;5050941;27;99763;-76
2023/06/21 03:36:43;;;;;;;49.40;35.25;;;;;;;;;;5051539;27;101491;-77
2023/06/21 03:39:13;;;;;;;49.40;34.28;;;;;;;;;;5050952;27;98333;-76
2023/06/21 03:41:40;;;;;;;49.92;34.03;;;;;;;;;;5075708;27;99705;-77
2023/06/21 03:44:07;;;;;;;58.85;35.35;;;;;;;;;;5072043;27;101830;-76
2023/06/21 03:46:33;;;;;;;52.05;34.05;;;;;;;;;;5089927;27;98037;-77
2023/06/21 03:49:01;;;;;;;53.47;35.92;;;;;;;;;;5090705;27;98464;-77
2023/06/21 03:51:29;;;;;;;54.03;33.78;;;;;;;;;;5079487;27;101413;-77
2023/06/21 03:53:55;;;;;;;48.05;34.33;;;;;;;;;;5075626;27;100090;-76
2023/06/21 03:56:22;;;;;;;52.58;34.63;;;;;;;;;;5094985;27;100234;-77
2023/06/21 03:58:48;;;;;;;49.88;33.28;;;;;;;;;;5090464;27;98263;-76
2023/06/21 04:01:16;;;;;;;50.10;33.83;;;;;;;;;;5069223;27;99450;-76
2023/06/21 04:03:42;;;;;;;49.53;33.67;;;;;;;;;;5090563;27;99037;-76
2023/06/21 04:06:09;;;;;;;52.40;33.92;;;;;;;;;;5090264;27;98269;-77
2023/06/21 04:08:35;;;;;;;51.00;34.47;;;;;;;;;;5089034;27;99493;-77
2023/06/21 04:11:02;;;;;;;49.28;32.88;;;;;;;;;;5089048;27;98780;-76
2023/06/21 04:13:28;;;;;;;57.17;33.42;;;;;;;;;;5093302;27;98241;-77
2023/06/21 04:15:55;;;;;;;45.08;30.95;;;;;;;;;;5071008;27;98699;-77
2023/06/21 04:18:22;;;;;;;44.97;32.55;;;;;;;;;;5051083;27;98250;-76
2023/06/21 04:20:50;;;;;;;49.72;31.42;;;;;;;;;;5069750;27;98792;-77
2023/06/21 04:23:18;;;;;;;41.13;29.27;;;;;;;;;;5067705;27;99092;-76
2023/06/21 04:25:47;;;;;;;48.15;31.10;;;;;;;;;;5051177;27;98390;-77
2023/06/21 04:28:14;;;;;;;48.50;31.75;;;;;;;;;;5050827;27;100520;-75
2023/06/21 04:30:43;;;;;;;44.47;32.67;;;;;;;;;;5034630;27;101057;-74
2023/06/21 04:33:11;;;;;;;41.85;29.65;;;;;;;;;;5051227;27;98414;-75
2023/06/21 04:35:40;;;;;;;40.58;29.27;;;;;;;;;;5071025;27;98528;-75
2023/06/21 04:38:07;;;;;;;45.78;28.88;;;;;;;;;;5067899;27;98223;-76
2023/06/21 04:40:34;;;;;;;37.47;27.40;;;;;;;;;;5069154;27;99702;-75
2023/06/21 04:43:05;;;;;;;34.03;27.38;;;;;;;;;;5067693;27;100031;-76
2023/06/21 04:45:32;;;;;;;33.55;27.63;;;;;;;;;;5069116;27;98387;-76
2023/06/21 04:47:58;;;;;;;29.10;25.50;;;;;;;;;;5068693;27;98107;-75
2023/06/21 04:50:26;;;;;;;35.50;25.92;;;;;;;;;;5068207;27;100072;-75
2023/06/21 04:52:57;;;;;;;34.72;23.85;;;;;;;;;;5069092;27;98042;-77
2023/06/21 04:55:25;;;;;;;33.40;25.50;;;;;;;;;;5069121;27;99655;-77
2023/06/21 04:57:52;;;;;;;35.40;24.40;;;;;;;;;;5070241;27;98385;-77
2023/06/21 05:00:18;;;;;;;39.97;24.65;;;;;;;;;;5067377;27;99609;-78
2023/06/21 05:02:45;;;;;;;28.50;23.77;;;;;;;;;;5068550;27;100433;-75
2023/06/21 05:05:12;;;;;;;31.00;25.08;;;;;;;;;;5067813;27;98683;-76
2023/06/21 05:07:38;;;;;;;29.23;24.50;;;;;;;;;;5077447;27;100032;-76
2023/06/21 05:10:07;;;;;;;34.50;23.42;;;;;;;;;;5087864;27;99240;-77
2023/06/21 05:12:34;;;;;;;32.30;23.98;;;;;;;;;;5088644;27;98675;-77
2023/06/21 05:15:00;;;;;;;28.13;23.80;;;;;;;;;;5087591;27;98751;-76
2023/06/21 05:17:27;;;;;;;27.20;22.80;;;;;;;;;;5092401;27;100093;-77
2023/06/21 05:19:53;;;;;;;26.00;22.27;;;;;;;;;;5088327;27;99990;-75
2023/06/21 05:22:20;;;;;;;33.90;23.17;;;;;;;;;;5088287;27;99796;-76
2023/06/21 05:24:46;;;;;;;23.85;21.35;;;;;;;;;;5087479;27;98064;-76
2023/06/21 05:27:13;;;;;;;31.15;21.30;;;;;;;;;;5088594;27;99261;-75
2023/06/21 05:29:39;;;;;;;28.17;20.60;;;;;;;;;;5087810;27;100060;-75
2023/06/21 05:32:05;;;;;;;22.33;20.02;;;;;;;;;;5067353;27;98215;-76
2023/06/21 05:34:32;;;;;;;25.30;20.85;;;;;;;;;;5068327;27;99509;-76
2023/06/21 05:36:58;;;;;;;20.70;18.58;;;;;;;;;;5067841;27;100415;-76
2023/06/21 05:39:25;;;;;;;21.33;19.05;;;;;;;;;;5070454;27;98678;-76
2023/06/21 05:41:51;;;;;;;24.73;18.98;;;;;;;;;;5067647;27;99021;-76
2023/06/21 05:44:18;;;;;;;24.30;17.13;;;;;;;;;;5067001;27;98297;-77
2023/06/21 05:46:44;;;;;;;20.00;16.95;;;;;;;;;;5067462;27;99614;-75
2023/06/21 05:49:11;;;;;;;21.75;17.20;;;;;;;;;;5066778;27;100020;-75
2023/06/21 05:51:37;;;;;;;19.17;16.55;;;;;;;;;;5067330;27;98405;-75
2023/06/21 05:54:04;;;;;;;17.17;15.48;;;;;;;;;;5067021;27;100229;-75
2023/06/21 05:56:31;;;;;;;18.25;15.57;;;;;;;;;;5067958;27;99954;-75
2023/06/21 05:58:58;;;;;;;16.20;14.48;;;;;;;;;;5067594;27;98234;-75
2023/06/21 06:01:24;;;;;;;17.30;14.68;;;;;;;;;;5087416;27;98589;-75
2023/06/21 06:03:51;;;;;;;18.52;14.52;;;;;;;;;;5087722;27;98229;-75
2023/06/21 06:06:17;;;;;;;14.73;12.65;;;;;;;;;;5088546;27;99300;-77
2023/06/21 06:08:45;;;;;;;16.50;13.75;;;;;;;;;;5086040;27;99670;-75
2023/06/21 06:11:11;;;;;;;15.73;14.07;;;;;;;;;;5087984;27;98319;-75
2023/06/21 06:13:38;;;;;;;14.57;13.07;;;;;;;;;;5085340;27;99632;-75
2023/06/21 06:16:05;;;;;;;16.27;11.70;;;;;;;;;;5087116;27;100136;-75
2023/06/21 06:18:31;;;;;;;17.80;12.93;;;;;;;;;;5087120;27;98267;-76
2023/06/21 06:20:58;;;;;;;13.52;12.23;;;;;;;;;;5086475;27;98745;-75
2023/06/21 06:23:24;;;;;;;13.60;12.30;;;;;;;;;;5090942;27;99005;-75
2023/06/21 06:25:51;;;;;;;13.40;12.05;;;;;;;;;;5088210;27;99643;-75
2023/06/21 06:28:19;;;;;;;17.80;13.43;;;;;;;;;;5086302;27;99043;-76
2023/06/21 06:30:45;;;;;;;18.27;13.02;;;;;;;;;;5075702;27;98278;-75
2023/06/21 06:33:11;;;;;;;17.15;12.73;;;;;;;;;;5067181;27;99801;-75
2023/06/21 06:35:38;;;;;;;15.50;13.18;;;;;;;;;;5066612;27;100075;-75
2023/06/21 06:38:04;;;;;;;14.07;12.60;;;;;;;;;;5066379;27;98482;-75
2023/06/21 06:40:31;;;;;;;16.35;13.23;;;;;;;;;;5066705;27;98477;-75
2023/06/21 06:42:57;;;;;;;13.80;12.45;;;;;;;;;;5066092;27;100049;-75
2023/06/21 06:45:24;;;;;;;17.05;12.30;;;;;;;;;;5070575;27;98093;-75
2023/06/21 06:47:51;;;;;;;14.60;12.20;;;;;;;;;;5067026;27;100000;-75
2023/06/21 06:50:17;;;;;;;15.18;11.80;;;;;;;;;;5066312;27;98513;-75
2023/06/21 06:52:44;;;;;;;13.02;11.88;;;;;;;;;;5066418;27;98682;-76
2023/06/21 06:55:10;;;;;;;12.60;11.32;;;;;;;;;;5066990;27;100203;-75
2023/06/21 06:57:36;;;;;;;19.98;14.77;;;;;;;;;;5066573;27;98790;-75
2023/06/21 07:00:15;;;;;;;20.17;15.93;;;;;;;;;;5076704;27;100017;-76
2023/06/21 07:02:41;;;;;;;25.42;15.10;;;;;;;;;;5086815;27;100465;-75
2023/06/21 07:05:08;;;;;;;16.33;13.32;;;;;;;;;;5089908;27;98271;-75
2023/06/21 07:07:34;;;;;;;14.90;11.57;;;;;;;;;;5086930;27;99980;-76
2023/06/21 07:10:01;;;;;;;14.77;11.40;;;;;;;;;;5086672;27;98224;-76
2023/06/21 07:12:27;;;;;;;16.95;9.95;;;;;;;;;;5087228;27;99914;-76
2023/06/21 07:14:54;;;;;;;16.33;10.75;;;;;;;;;;5086841;27;99013;-76
2023/06/21 07:17:23;;;;;;;13.18;10.18;;;;;;;;;;5087003;27;98215;-76
2023/06/21 07:19:50;;;;;;;13.32;10.00;;;;;;;;;;5088146;27;99401;-75
2023/06/21 07:22:16;;;;;;;9.98;8.88;;;;;;;;;;5088813;27;100196;-76
2023/06/21 07:24:43;;;;;;;10.27;8.65;;;;;;;;;;5090070;27;98242;-76
2023/06/21 07:27:09;;;;;;;11.40;8.25;;;;;;;;;;5091953;27;98608;-76
2023/06/21 07:29:36;;;;;;;10.00;8.48;;;;;;;;;;5085215;27;99865;-76
2023/06/21 07:32:02;;;;;;;9.05;8.15;;;;;;;;;;5068666;27;98424;-75
2023/06/21 07:34:30;;;;;;;8.90;8.10;;;;;;;;;;5069274;27;99202;-77
2023/06/21 07:36:56;;;;;;;8.25;7.53;;;;;;;;;;5069325;27;98279;-78
2023/06/21 07:39:23;;;;;;;8.07;7.28;;;;;;;;;;5068642;27;98764;-77
2023/06/21 07:41:49;;;;;;;12.07;8.23;;;;;;;;;;5068686;27;99080;-78
2023/06/21 07:44:34;;;;;;;8.27;7.55;;;;;;;;;;5070303;27;98194;-76
2023/06/21 07:47:01;;;;;;;8.63;7.03;;;;;;;;;;5068658;27;98926;-78
2023/06/21 07:49:27;;;;;;;9.25;6.68;;;;;;;;;;5073235;27;99973;-78
2023/06/21 07:51:54;;;;;;;8.02;6.47;;;;;;;;;;5069998;27;99530;-78
2023/06/21 07:54:20;;;;;;;9.90;6.80;;;;;;;;;;5071954;27;101167;-77
2023/06/21 07:56:46;;;;;;;8.35;6.35;;;;;;;;;;5072273;27;98588;-78
2023/06/21 07:59:13;;;;;;;6.57;5.63;;;;;;;;;;5071343;27;99607;-77
2023/06/21 08:01:39;;;;;;;7.35;6.28;;;;;;;;;;5069384;27;98695;-77
2023/06/21 08:04:06;;;;;;;5.80;5.30;;;;;;;;;;5068739;27;98243;-77
2023/06/21 08:06:32;;;;;;;6.13;5.05;;;;;;;;;;5069023;27;98635;-78
2023/06/21 08:08:59;;;;;;;7.70;4.53;;;;;;;;;;5068976;27;100213;-77
2023/06/21 08:11:27;;;;;;;5.55;4.82;;;;;;;;;;5072162;27;98268;-77
2023/06/21 08:13:53;;;;;;;6.15;5.18;;;;;;;;;;5069015;27;99965;-77
2023/06/21 08:16:20;;;;;;;5.38;4.70;;;;;;;;;;5069093;27;98682;-76
2023/06/21 08:18:46;;;;;;;5.15;4.28;;;;;;;;;;5068788;27;98550;-77
2023/06/21 08:21:13;;;;;;;6.03;4.57;;;;;;;;;;5068243;27;100099;-78
2023/06/21 08:23:39;;;;;;;6.18;4.63;;;;;;;;;;5069066;27;98356;-75
2023/06/21 08:26:06;;;;;;;5.35;4.85;;;;;;;;;;5069285;27;99544;-75
2023/06/21 08:28:32;;;;;;;6.70;4.65;;;;;;;;;;5067921;27;99208;-75
2023/06/21 08:30:58;;;;;;;5.10;4.35;;;;;;;;;;5086431;27;98445;-77
2023/06/21 08:33:25;;;;;;;8.75;5.38;;;;;;;;;;5092755;27;98767;-77
2023/06/21 08:35:51;;;;;;;7.75;6.22;;;;;;;;;;5089082;27;99289;-76
2023/06/21 08:38:18;;;;;;;6.60;4.93;;;;;;;;;;5089515;27;99483;-76
2023/06/21 08:40:57;;;;;;;4.55;4.15;;;;;;;;;;5088138;27;98973;-76
2023/06/21 08:43:23;;;;;;;6.65;3.38;;;;;;;;;;5087544;27;98241;-76
2023/06/21 08:45:50;;;;;;;4.70;3.78;;;;;;;;;;5089135;27;99037;-76
2023/06/21 08:48:18;;;;;;;3.45;3.15;;;;;;;;;;5089098;27;100024;-76
2023/06/21 08:50:45;;;;;;;3.97;3.42;;;;;;;;;;5087794;27;98743;-76
2023/06/21 08:53:12;;;;;;;4.47;3.05;;;;;;;;;;5089220;27;99438;-76
2023/06/21 08:55:40;;;;;;;3.70;2.95;;;;;;;;;;5091529;27;99145;-76
2023/06/21 08:58:09;;;;;;;3.92;3.10;;;;;;;;;;5089774;27;99370;-76
2023/06/21 09:00:41;;;;;;;3.35;3.05;;;;;;;;;;5070288;27;99350;-75
2023/06/21 09:03:10;;;;;;;4.90;3.28;;;;;;;;;;5068160;27;98346;-76
2023/06/21 09:05:40;;;;;;;3.72;3.20;;;;;;;;;;5068119;27;99396;-76
2023/06/21 09:08:06;;;;;;;5.93;3.67;;;;;;;;;;5067288;27;98936;-76
2023/06/21 09:10:38;;;;;;;3.05;2.85;;;;;;;;;;5067631;27;98229;-75
2023/06/21 09:13:05;;;;;;;2.88;2.63;;;;;;;;;;5068071;27;98620;-75
2023/06/21 09:15:32;;;;;;;2.33;2.13;;;;;;;;;;5071630;27;100104;-76
2023/06/21 09:17:59;;;;;;;3.75;2.55;;;;;;;;;;5066728;27;98508;-76
2023/06/21 09:20:29;;;;;;;2.60;2.45;;;;;;;;;;5068412;27;100006;-76
2023/06/21 09:22:57;;;;;;;2.83;2.05;;;;;;;;;;5068117;27;98279;-76
2023/06/21 09:25:23;;;;;;;2.60;2.35;;;;;;;;;;5067068;27;98552;-76
2023/06/21 09:27:50;;;;;;;3.60;2.35;;;;;;;;;;5067882;27;99609;-76
2023/06/21 09:30:18;;;;;;;5.63;2.50;;;;;;;;;;5066592;27;98349;-76
2023/06/21 09:33:03;;;;;;;3.83;2.53;;;;;;;;;;5067601;27;99749;-75
2023/06/21 09:35:29;;;;;;;2.55;1.98;;;;;;;;;;5068038;27;99952;-75
2023/06/21 09:37:56;;;;;;;6.95;2.42;;;;;;;;;;5072167;27;98306;-76
2023/06/21 09:40:22;;;;;;;2.10;1.90;;;;;;;;;;5087884;27;98921;-76
2023/06/21 09:42:50;;;;;;;1.83;1.70;;;;;;;;;;5088399;27;98232;-75
2023/06/21 09:45:20;;;;;;;1.73;1.50;;;;;;;;;;5086672;27;98485;-76
2023/06/21 09:47:46;;;;;;;1.60;1.50;;;;;;;;;;5087822;27;99331;-75
2023/06/21 09:50:13;;;;;;;1.58;1.48;;;;;;;;;;5088373;27;98213;-75
2023/06/21 09:52:43;;;;;;;2.47;1.63;;;;;;;;;;5087918;27;99484;-76
2023/06/21 09:55:13;;;;;;;3.08;1.40;;;;;;;;;;5087215;27;100211;-76
2023/06/21 09:57:39;;;;;;;1.40;1.17;;;;;;;;;;5086828;27;98919;-76
2023/06/21 10:00:07;;;;;;;3.60;1.20;;;;;;;;;;5074379;27;99385;-75
2023/06/21 10:02:39;;;;;;;2.03;1.10;;;;;;;;;;5066899;27;98135;-75
2023/06/21 10:05:15;;;;;;;1.13;1.02;;;;;;;;;;5067031;27;98385;-75
2023/06/21 10:07:43;;;;;;;1.15;1.00;;;;;;;;;;5066487;27;100050;-76
2023/06/21 10:10:10;;;;;;;2.33;1.20;;;;;;;;;;5066827;27;98221;-75
2023/06/21 10:12:36;;;;;;;1.33;1.23;;;;;;;;;;5068165;27;99610;-76
2023/06/21 10:15:04;;;;;;;1.83;1.30;;;;;;;;;;5066042;27;99514;-76
2023/06/21 10:17:31;;;;;;;1.38;1.27;;;;;;;;;;5067534;27;99435;-76
2023/06/21 10:19:59;;;;;;;1.40;1.30;;;;;;;;;;5065160;27;98743;-76
2023/06/21 10:22:25;;;;;;;1.33;1.00;;;;;;;;;;5069963;27;99451;-75
2023/06/21 10:24:52;;;;;;;3.85;1.30;;;;;;;;;;5068111;27;99529;-76
2023/06/21 10:27:20;;;;;;;1.63;1.52;;;;;;;;;;5066926;27;100327;-76
2023/06/21 10:29:53;;;;;;;2.17;1.20;;;;;;;;;;5069544;27;98264;-76
2023/06/21 10:32:20;;;;;;;1.88;1.35;;;;;;;;;;5067937;27;98173;-76
2023/06/21 10:35:05;;;;;;;2.55;1.33;;;;;;;;;;5067184;27;100172;-76
2023/06/21 10:37:35;;;;;;;2.38;1.63;;;;;;;;;;5068102;27;98350;-77
2023/06/21 10:40:04;;;;;;;1.58;1.48;;;;;;;;;;5066599;27;98447;-77
2023/06/21 10:42:37;;;;;;;1.42;1.33;;;;;;;;;;5066686;27;99895;-76
2023/06/21 10:45:04;;;;;;;1.95;1.42;;;;;;;;;;5069314;27;98270;-76
2023/06/21 10:47:31;;;;;;;1.58;1.48;;;;;;;;;;5067533;27;99975;-76
2023/06/21 10:49:58;;;;;;;2.28;1.52;;;;;;;;;;5069788;27;98246;-76
2023/06/21 10:52:26;;;;;;;5.57;1.40;;;;;;;;;;5088214;27;99798;-76
2023/06/21 10:54:55;;;;;;;1.63;1.40;;;;;;;;;;5087795;27;100123;-75
2023/06/21 10:57:23;;;;;;;2.85;1.50;;;;;;;;;;5089114;27;98158;-75
2023/06/21 10:59:49;;;;;;;1.77;1.67;;;;;;;;;;5090512;27;98913;-78
2023/06/21 11:02:16;;;;;;;1.90;1.80;;;;;;;;;;5089577;27;99295;-76
2023/06/21 11:05:01;;;;;;;2.08;1.42;;;;;;;;;;5090932;27;98103;-77
2023/06/21 11:07:28;;;;;;;3.22;1.70;;;;;;;;;;5092866;27;98744;-77
2023/06/21 11:09:55;;;;;;;6.43;1.80;;;;;;;;;;5089698;27;98291;-77
2023/06/21 11:12:24;;;;;;;9.60;1.88;;;;;;;;;;5090145;27;98647;-78
2023/06/21 11:14:51;;;;;;;1.92;1.30;;;;;;;;;;5091069;27;100027;-75
2023/06/21 11:17:23;;;;;;;9.98;2.33;;;;;;;;;;5089366;27;98600;-75
2023/06/21 11:19:49;;;;;;;1.60;1.50;;;;;;;;;;5088768;27;99416;-77
2023/06/21 11:22:17;;;;;;;2.20;1.30;;;;;;;;;;5069873;27;100124;-77
2023/06/21 11:24:50;;;;;;;2.92;1.60;;;;;;;;;;5069534;27;98286;-76
2023/06/21 11:27:17;;;;;;;3.58;2.05;;;;;;;;;;5073679;27;99604;-77
2023/06/21 11:29:54;;;;;;;2.42;1.63;;;;;;;;;;5069786;27;98300;-77
2023/06/21 11:32:21;;;;;;;2.53;1.30;;;;;;;;;;5069722;27;99517;-77
2023/06/21 11:34:56;;;;;;;3.92;1.70;;;;;;;;;;5069497;27;99735;-77
2023/06/21 11:37:30;;;;;;;2.10;1.88;;;;;;;;;;5069687;27;98502;-77
2023/06/21 11:39:57;;;;;;;4.05;1.80;;;;;;;;;;5076953;27;99002;-77
2023/06/21 11:42:25;;;;;;;1.92;1.80;;;;;;;;;;5090516;27;99952;-78
2023/06/21 11:44:53;;;;;;;1.52;1.42;;;;;;;;;;5089275;27;98955;-77
2023/06/21 11:47:19;;;;;;;2.30;1.40;;;;;;;;;;5090710;27;99924;-77
2023/06/21 11:50:09;;;;;;;1.80;1.65;;;;;;;;;;5092701;27;98937;-77
2023/06/21 11:52:36;;;;;;;1.70;1.60;;;;;;;;;;5088888;27;98418;-76
2023/06/21 11:55:12;;;;;;;1.85;1.75;;;;;;;;;;5090201;27;100511;-77
2023/06/21 11:57:42;;;;;;;9.20;2.08;;;;;;;;;;5090879;27;98158;-77
2023/06/21 12:00:09;;;;;;;1.95;1.75;;;;;;;;;;5087580;27;98495;-77
2023/06/21 12:02:36;;;;;;;2.40;1.70;;;;;;;;;;5090150;27;99980;-77
2023/06/21 12:05:02;;;;;;;2.40;2.20;;;;;;;;;;5089221;27;98394;-77
2023/06/21 12:07:29;;;;;;;3.90;1.77;;;;;;;;;;5088724;27;99201;-76
2023/06/21 12:09:55;;;;;;;3.03;1.70;;;;;;;;;;5083268;27;99948;-76
2023/06/21 12:12:26;;;;;;;2.10;1.90;;;;;;;;;;5073077;27;98240;-77
2023/06/21 12:14:55;;;;;;;1.90;1.80;;;;;;;;;;5084853;27;99944;-76
2023/06/21 12:17:22;;;;;;;1.70;1.55;;;;;;;;;;5089653;27;98475;-76
2023/06/21 12:19:48;;;;;;;2.95;2.08;;;;;;;;;;5089624;27;99439;-77
2023/06/21 12:22:15;;;;;;;2.33;1.95;;;;;;;;;;5088931;27;99136;-76
2023/06/21 12:24:41;;;;;;;2.92;1.88;;;;;;;;;;5088998;27;98299;-77
2023/06/21 12:27:11;;;;;;;8.18;2.38;;;;;;;;;;5089036;27;99658;-76
2023/06/21 12:29:45;;;;;;;7.07;1.67;;;;;;;;;;5092370;27;100266;-76
2023/06/21 12:32:12;;;;;;;4.43;1.90;;;;;;;;;;5089803;27;98154;-76
2023/06/21 12:34:38;;;;;;;2.63;1.60;;;;;;;;;;5092962;27;98532;-76
2023/06/21 12:37:05;;;;;;;1.90;1.75;;;;;;;;;;5089650;27;98619;-77
2023/06/21 12:39:31;;;;;;;2.13;1.38;;;;;;;;;;5082643;27;98720;-77
2023/06/21 12:41:58;;;;;;;1.60;1.50;;;;;;;;;;5067212;27;99148;-77
2023/06/21 12:44:30;;;;;;;2.38;1.50;;;;;;;;;;5069694;27;99126;-76
2023/06/21 12:46:57;;;;;;;1.58;1.30;;;;;;;;;;5072332;27;99436;-76
2023/06/21 12:49:24;;;;;;;2.65;1.65;;;;;;;;;;5072964;27;100007;-77
2023/06/21 12:51:50;;;;;;;1.73;1.63;;;;;;;;;;5074331;27;98235;-76
2023/06/21 12:54:20;;;;;;;2.05;1.63;;;;;;;;;;5071289;27;98372;-76
2023/06/21 12:56:48;;;;;;;2.15;1.60;;;;;;;;;;5071684;27;98930;-76
2023/06/21 12:59:14;;;;;;;1.95;1.35;;;;;;;;;;5069081;27;99479;-77
2023/06/21 13:01:41;;;;;;;6.25;1.33;;;;;;;;;;5068462;27;100076;-76
2023/06/21 13:04:14;;;;;;;1.80;1.70;;;;;;;;;;5069066;27;98808;-77
2023/06/21 13:06:42;;;;;;;2.38;1.30;;;;;;;;;;5068213;27;98786;-77
2023/06/21 13:09:09;;;;;;;1.65;1.30;;;;;;;;;;5066688;27;98935;-77
2023/06/21 13:11:36;;;;;;;1.15;1.13;;;;;;;;;;5068501;27;98169;-77
2023/06/21 13:14:05;;;;;;;3.40;1.10;;;;;;;;;;5067327;27;98094;-76
2023/06/21 13:16:32;;;;;;;1.23;1.10;;;;;;;;;;5068036;27;100100;-77
2023/06/21 13:18:58;;;;;;;1.33;1.23;;;;;;;;;;5071144;27;98109;-77
2023/06/21 13:21:25;;;;;;;1.33;1.23;;;;;;;;;;5066992;27;99350;-77
2023/06/21 13:23:54;;;;;;;3.25;1.20;;;;;;;;;;5066964;27;98461;-76
2023/06/21 13:26:21;;;;;;;2.03;1.33;;;;;;;;;;5068154;27;98690;-77
2023/06/21 13:28:50;;;;;;;2.05;1.73;;;;;;;;;;5068360;27;99960;-77
2023/06/21 13:31:18;;;;;;;3.65;2.33;;;;;;;;;;5067423;27;98707;-77
2023/06/21 13:33:49;;;;;;;4.93;1.90;;;;;;;;;;5068111;27;98734;-77
2023/06/21 13:36:15;;;;;;;5.57;2.55;;;;;;;;;;5068125;27;100283;-77
2023/06/21 13:38:42;;;;;;;2.78;2.58;;;;;;;;;;5070496;27;98429;-77
2023/06/21 13:41:08;;;;;;;6.07;3.03;;;;;;;;;;5067722;27;98882;-77
2023/06/21 13:43:35;;;;;;;8.80;5.07;;;;;;;;;;5067271;27;98792;-77
2023/06/21 13:46:02;;;;;;;6.45;3.95;;;;;;;;;;5071280;27;99489;-77
2023/06/21 13:48:28;;;;;;;6.65;4.03;;;;;;;;;;5087513;27;99276;-77
2023/06/21 13:50:55;;;;;;;6.80;4.50;;;;;;;;;;5088134;27;98286;-77
2023/06/21 13:53:21;;;;;;;4.30;3.90;;;;;;;;;;5088060;27;99088;-77
2023/06/21 13:55:48;;;;;;;4.47;3.67;;;;;;;;;;5088047;27;99011;-77
2023/06/21 13:58:15;;;;;;;10.00;4.70;;;;;;;;;;5087830;27;98262;-77
2023/06/21 14:00:41;;;;;;;8.60;5.35;;;;;;;;;;5091158;27;98680;-78
2023/06/21 14:03:07;;;;;;;9.93;5.10;;;;;;;;;;5086703;27;98290;-77
2023/06/21 14:05:34;;;;;;;10.05;6.13;;;;;;;;;;5087878;27;99905;-76
2023/06/21 14:08:02;;;;;;;13.15;4.85;;;;;;;;;;5086724;27;98950;-77
2023/06/21 14:10:31;;;;;;;6.68;4.00;;;;;;;;;;5070904;27;98156;-77
2023/06/21 14:12:58;;;;;;;8.27;3.85;;;;;;;;;;5066785;27;99703;-77
2023/06/21 14:15:25;;;;;;;4.65;3.33;;;;;;;;;;5067605;27;99849;-77
2023/06/21 14:17:51;;;;;;;6.00;4.38;;;;;;;;;;5067973;27;98271;-76
2023/06/21 14:20:17;;;;;;;5.88;4.65;;;;;;;;;;5066245;27;98781;-77
2023/06/21 14:22:44;;;;;;;4.82;3.15;;;;;;;;;;5070450;27;98783;-77
2023/06/21 14:25:11;;;;;;;9.63;4.97;;;;;;;;;;5067488;27;99383;-77
2023/06/21 14:27:38;;;;;;;9.23;4.40;;;;;;;;;;5066263;27;100009;-77
2023/06/21 14:30:05;;;;;;;4.45;4.05;;;;;;;;;;5066672;27;98346;-77